Time;durP1;ratioP1;P1;durP2;ratioP2;P2;SDS_P1;SDS_P2;PMS_P1;PMS_P2;Temp;Humidity;BMP_temperature;BMP_pressure;BME280_temperature;BME280_humidity;BME280_pressure;Samples;Min_cycle;Max_cycle;Signal;HPM_P1;HPM_P2
2022/08/28 00:02:04;;;;;;;7.82;2.38;;;20.10;99.90;;;;;;5050848;28;20533;-69
2022/08/28 00:04:30;;;;;;;5.57;2.30;;;20.10;99.90;;;;;;5050691;28;20025;-69
2022/08/28 00:06:56;;;;;;;10.90;2.75;;;20.00;99.90;;;;;;5051555;28;20114;-68
2022/08/28 00:09:21;;;;;;;6.30;2.22;;;20.00;99.90;;;;;;5050884;28;20056;-69
2022/08/28 00:11:48;;;;;;;7.78;2.47;;;20.10;99.90;;;;;;5051802;28;20052;-69
2022/08/28 00:14:14;;;;;;;9.30;2.40;;;20.00;99.90;;;;;;5050805;28;20028;-68
2022/08/28 00:16:40;;;;;;;9.00;2.33;;;20.00;99.90;;;;;;5048743;28;20075;-69
2022/08/28 00:19:06;;;;;;;8.38;2.63;;;20.10;99.90;;;;;;5041221;28;20025;-69
2022/08/28 00:21:32;;;;;;;6.35;2.25;;;20.00;99.90;;;;;;5049947;28;20487;-69
2022/08/28 00:23:59;;;;;;;7.53;2.72;;;20.00;99.90;;;;;;5051210;28;20064;-69
2022/08/28 00:29:09;;;;;;;8.80;2.80;;;20.00;99.90;;;;;;5042170;28;20045;-69
2022/08/28 00:31:38;;;;;;;10.02;3.10;;;20.10;99.90;;;;;;5037836;28;20029;-69
2022/08/28 00:34:06;;;;;;;8.23;2.65;;;19.90;99.90;;;;;;5021221;28;20113;-69
2022/08/28 00:36:32;;;;;;;10.65;3.20;;;19.90;99.90;;;;;;5045627;28;20029;-69
2022/08/28 00:39:01;;;;;;;5.72;3.13;;;19.90;99.90;;;;;;5050243;28;20029;-69
2022/08/28 00:41:30;;;;;;;9.55;3.10;;;19.90;99.90;;;;;;5050921;28;20104;-69
2022/08/28 00:44:28;;;;;;;8.75;2.90;;;19.90;99.90;;;;;;5033498;28;20028;-69
2022/08/28 00:46:55;;;;;;;6.72;2.95;;;19.90;99.90;;;;;;5004638;28;20037;-69
2022/08/28 00:49:30;;;;;;;11.00;3.10;;;19.90;99.90;;;;;;5047314;28;20377;-69
2022/08/28 00:52:07;;;;;;;10.23;2.85;;;19.90;99.90;;;;;;5041136;28;20044;-68
2022/08/28 00:54:50;;;;;;;9.32;3.10;;;19.80;99.90;;;;;;5046061;28;20116;-69
2022/08/28 00:57:25;;;;;;;7.82;3.30;;;19.80;99.90;;;;;;5036439;28;20023;-69
2022/08/28 00:59:51;;;;;;;7.28;3.05;;;19.80;99.90;;;;;;5040787;28;20767;-69
2022/08/28 01:02:17;;;;;;;11.52;3.33;;;19.80;99.90;;;;;;5043664;28;20083;-69
2022/08/28 01:04:43;;;;;;;9.27;3.63;;;19.80;99.90;;;;;;5049954;28;20029;-69
2022/08/28 01:07:13;;;;;;;11.98;3.80;;;19.80;99.90;;;;;;5037311;28;20017;-69
2022/08/28 01:09:44;;;;;;;8.82;3.72;;;19.80;99.90;;;;;;5050002;28;20043;-69
2022/08/28 01:12:21;;;;;;;8.35;3.90;;;19.70;99.90;;;;;;5054953;28;20072;-69
2022/08/28 01:14:50;;;;;;;6.13;3.40;;;19.70;99.90;;;;;;5052708;28;20082;-69
2022/08/28 01:17:19;;;;;;;9.45;3.47;;;19.70;99.90;;;;;;5054114;28;20027;-69
2022/08/28 01:19:54;;;;;;;7.10;3.72;;;19.60;99.90;;;;;;5044377;28;20406;-69
2022/08/28 01:22:36;;;;;;;9.30;3.38;;;19.70;99.90;;;;;;5048285;28;20028;-68
2022/08/28 01:25:05;;;;;;;8.25;3.75;;;19.70;99.90;;;;;;5053478;28;20029;-68
2022/08/28 01:27:30;;;;;;;10.65;3.67;;;19.70;99.90;;;;;;5053879;28;20141;-69
2022/08/28 01:29:56;;;;;;;13.27;3.33;;;19.60;99.90;;;;;;5042596;28;20112;-69
2022/08/28 01:32:33;;;;;;;9.55;3.53;;;19.60;99.90;;;;;;5048992;28;20027;-68
2022/08/28 01:34:59;;;;;;;8.18;3.88;;;19.60;99.90;;;;;;5054168;28;20024;-69
2022/08/28 01:37:25;;;;;;;9.02;3.47;;;19.60;99.90;;;;;;5053687;28;20435;-69
2022/08/28 01:39:51;;;;;;;8.73;3.83;;;19.50;99.90;;;;;;5035177;28;20064;-69
2022/08/28 01:42:16;;;;;;;12.02;4.07;;;19.50;99.90;;;;;;5054185;28;20033;-69
2022/08/28 01:44:42;;;;;;;11.38;3.65;;;19.60;99.90;;;;;;5053515;28;20112;-69
2022/08/28 01:47:08;;;;;;;8.82;3.92;;;19.60;99.90;;;;;;5053561;28;20017;-69
2022/08/28 01:49:34;;;;;;;10.75;4.30;;;19.50;99.90;;;;;;5052240;28;20477;-69
2022/08/28 01:51:59;;;;;;;12.45;4.05;;;19.50;99.90;;;;;;5053954;28;20025;-69
2022/08/28 01:54:27;;;;;;;9.30;3.63;;;19.40;99.90;;;;;;5053813;28;20052;-70
2022/08/28 01:56:53;;;;;;;9.95;3.95;;;19.40;99.90;;;;;;5053238;28;20368;-70
2022/08/28 01:59:19;;;;;;;8.93;3.95;;;19.30;99.90;;;;;;5059898;28;20425;-69
2022/08/28 02:01:45;;;;;;;10.90;4.13;;;19.40;99.90;;;;;;5063763;28;20025;-69
2022/08/28 02:04:11;;;;;;;8.80;4.03;;;19.40;99.90;;;;;;5062703;28;20497;-69
2022/08/28 02:06:39;;;;;;;9.32;4.22;;;19.20;99.90;;;;;;5063853;28;20059;-68
2022/08/28 02:09:06;;;;;;;11.75;4.60;;;19.30;99.90;;;;;;5063200;28;20032;-69
2022/08/28 02:11:32;;;;;;;11.00;3.97;;;19.30;99.90;;;;;;5062836;28;20064;-70
2022/08/28 02:13:59;;;;;;;9.07;3.67;;;19.40;99.90;;;;;;5064237;28;20432;-68
2022/08/28 02:16:25;;;;;;;12.98;4.13;;;19.40;99.90;;;;;;5063158;28;20024;-70
2022/08/28 02:18:51;;;;;;;10.98;4.45;;;19.40;99.90;;;;;;5061571;28;20448;-69
2022/08/28 02:21:17;;;;;;;13.52;4.63;;;19.40;99.90;;;;;;5063712;28;20031;-70
2022/08/28 02:23:45;;;;;;;10.65;4.05;;;19.40;99.90;;;;;;5062346;28;20021;-72
2022/08/28 02:26:12;;;;;;;13.60;4.95;;;19.40;99.90;;;;;;5062996;28;20390;-69
2022/08/28 02:28:39;;;;;;;14.75;4.70;;;19.40;99.90;;;;;;5060451;28;20042;-69
2022/08/28 02:31:09;;;;;;;11.25;4.32;;;19.30;99.90;;;;;;5062513;28;20032;-69
2022/08/28 02:33:40;;;;;;;11.27;4.30;;;19.40;99.90;;;;;;5060759;28;20074;-69
2022/08/28 02:36:10;;;;;;;10.80;4.40;;;19.40;99.90;;;;;;5060607;28;20059;-69
2022/08/28 02:38:37;;;;;;;15.20;4.50;;;19.40;99.90;;;;;;5062122;28;20008;-69
2022/08/28 02:41:04;;;;;;;14.02;4.75;;;19.30;99.90;;;;;;5059547;28;20029;-69
2022/08/28 02:43:30;;;;;;;12.18;4.70;;;19.40;99.90;;;;;;5062799;28;20029;-69
2022/08/28 02:45:55;;;;;;;10.07;4.32;;;19.40;99.90;;;;;;5061993;28;20071;-69
2022/08/28 02:48:21;;;;;;;13.15;4.68;;;19.40;99.90;;;;;;5064130;28;20044;-69
2022/08/28 02:50:47;;;;;;;10.63;4.63;;;19.20;99.90;;;;;;5062578;28;20440;-69
2022/08/28 02:53:13;;;;;;;8.73;3.92;;;19.20;99.90;;;;;;5062848;28;20543;-69
2022/08/28 02:55:38;;;;;;;9.88;4.07;;;19.20;99.90;;;;;;5060913;28;20039;-69
2022/08/28 02:58:05;;;;;;;11.60;4.88;;;19.20;99.90;;;;;;5061401;28;20021;-69
2022/08/28 03:00:31;;;;;;;12.07;4.70;;;19.20;99.90;;;;;;5061214;28;20033;-69
2022/08/28 03:02:57;;;;;;;11.20;4.60;;;19.10;99.90;;;;;;5060778;28;20028;-69
2022/08/28 03:05:24;;;;;;;9.25;4.15;;;19.10;99.90;;;;;;5063557;28;20032;-69
2022/08/28 03:07:52;;;;;;;11.30;5.45;;;19.00;99.90;;;;;;5061008;28;20013;-69
2022/08/28 03:10:18;;;;;;;11.68;5.03;;;18.90;99.90;;;;;;5059648;28;20033;-68
2022/08/28 03:12:44;;;;;;;12.85;6.05;;;18.90;99.90;;;;;;5060829;28;20520;-69
2022/08/28 03:15:11;;;;;;;9.40;5.50;;;18.90;99.90;;;;;;5063056;28;20469;-70
2022/08/28 03:17:37;;;;;;;11.80;6.32;;;18.90;99.90;;;;;;5062721;28;20024;-68
2022/08/28 03:20:08;;;;;;;9.50;5.30;;;18.80;99.90;;;;;;5058243;28;20033;-68
2022/08/28 03:25:18;;;;;;;12.80;5.60;;;18.80;99.90;;;;;;5062741;28;20048;-69
2022/08/28 03:27:44;;;;;;;13.13;5.63;;;18.70;99.90;;;;;;5061043;28;20025;-68
2022/08/28 03:30:10;;;;;;;12.45;5.50;;;18.70;99.90;;;;;;5060729;28;20037;-68
2022/08/28 03:32:36;;;;;;;10.98;5.53;;;18.60;99.90;;;;;;5062803;28;20029;-70
2022/08/28 03:35:03;;;;;;;13.32;5.90;;;18.60;99.90;;;;;;5063200;28;20017;-71
2022/08/28 03:37:28;;;;;;;11.68;6.32;;;18.60;99.90;;;;;;5061872;28;20023;-70
2022/08/28 03:39:54;;;;;;;13.55;6.57;;;18.50;99.90;;;;;;5053342;28;20021;-70
2022/08/28 03:42:20;;;;;;;16.73;6.18;;;18.50;99.90;;;;;;5052616;28;20025;-72
2022/08/28 03:44:46;;;;;;;14.65;6.15;;;18.40;99.90;;;;;;5052464;28;20025;-73
2022/08/28 03:47:12;;;;;;;15.20;6.65;;;18.40;99.90;;;;;;5052395;28;20120;-68
2022/08/28 03:49:37;;;;;;;15.20;6.68;;;18.40;99.90;;;;;;5052026;28;20092;-70
2022/08/28 03:52:03;;;;;;;12.00;6.55;;;18.30;99.90;;;;;;5052286;28;20469;-71
2022/08/28 03:54:30;;;;;;;18.90;7.38;;;18.30;99.90;;;;;;5052440;28;20021;-70
2022/08/28 03:56:56;;;;;;;12.32;6.20;;;18.20;99.90;;;;;;5052202;28;20532;-70
2022/08/28 03:59:22;;;;;;;14.98;6.18;;;18.20;99.90;;;;;;5051638;28;20100;-70
2022/08/28 04:01:47;;;;;;;12.35;6.88;;;18.10;99.90;;;;;;5051735;28;20420;-70
2022/08/28 04:04:13;;;;;;;14.70;6.82;;;18.10;99.90;;;;;;5051585;28;20091;-71
2022/08/28 04:06:39;;;;;;;13.63;6.55;;;18.10;99.90;;;;;;5051237;28;20128;-74
2022/08/28 04:09:05;;;;;;;13.85;5.95;;;18.10;99.90;;;;;;5050977;28;20029;-70
2022/08/28 04:11:35;;;;;;;12.32;6.57;;;18.00;99.90;;;;;;5052224;28;20400;-72
2022/08/28 04:14:01;;;;;;;14.43;6.20;;;18.00;99.90;;;;;;5052346;28;20025;-69
2022/08/28 04:16:27;;;;;;;16.38;6.93;;;18.00;99.90;;;;;;5052440;28;20362;-69
2022/08/28 04:18:53;;;;;;;15.00;6.80;;;18.00;99.90;;;;;;5051577;28;20016;-69
2022/08/28 04:21:25;;;;;;;12.55;6.43;;;17.90;99.90;;;;;;5052007;28;20370;-68
2022/08/28 04:23:52;;;;;;;20.27;7.32;;;17.80;99.90;;;;;;5051776;28;20036;-69
2022/08/28 04:26:21;;;;;;;13.93;6.47;;;17.90;99.90;;;;;;5051903;28;20039;-71
2022/08/28 04:28:48;;;;;;;13.25;7.47;;;17.80;99.90;;;;;;5052056;28;20108;-69
2022/08/28 04:31:15;;;;;;;11.77;7.03;;;17.80;99.90;;;;;;5050744;28;20044;-69
2022/08/28 04:33:41;;;;;;;17.02;7.25;;;17.80;99.90;;;;;;5051926;28;20048;-69
2022/08/28 04:36:13;;;;;;;17.42;7.55;;;17.70;99.90;;;;;;5051348;28;20485;-68
2022/08/28 04:38:40;;;;;;;20.70;7.15;;;17.80;99.90;;;;;;5051242;28;20563;-68
2022/08/28 04:41:08;;;;;;;13.10;7.28;;;17.80;99.90;;;;;;5033471;28;20164;-69
2022/08/28 04:43:34;;;;;;;18.70;7.45;;;17.70;99.90;;;;;;5052139;28;20032;-69
2022/08/28 04:46:04;;;;;;;14.15;7.10;;;17.70;99.90;;;;;;5053783;28;20025;-69
2022/08/28 04:48:30;;;;;;;17.92;7.43;;;17.60;99.90;;;;;;5055393;28;20032;-69
2022/08/28 04:50:56;;;;;;;18.20;7.43;;;17.60;99.90;;;;;;5055331;28;20033;-69
2022/08/28 04:53:23;;;;;;;18.02;6.88;;;17.60;99.90;;;;;;5053605;28;20025;-69
2022/08/28 04:55:50;;;;;;;15.57;6.93;;;17.60;99.90;;;;;;5054891;28;20078;-69
2022/08/28 04:58:18;;;;;;;18.98;7.95;;;17.60;99.90;;;;;;5055742;28;20462;-69
2022/08/28 05:00:47;;;;;;;16.08;7.30;;;17.50;99.90;;;;;;5055630;28;20477;-69
2022/08/28 05:03:13;;;;;;;14.02;7.43;;;17.40;99.90;;;;;;5055606;28;20064;-70
2022/08/28 05:05:47;;;;;;;13.68;7.00;;;17.30;99.90;;;;;;5055562;28;20052;-69
2022/08/28 05:08:15;;;;;;;16.20;7.22;;;17.30;99.90;;;;;;5055050;28;20036;-69
2022/08/28 05:10:41;;;;;;;15.10;7.05;;;17.30;99.90;;;;;;5054988;28;20094;-69
2022/08/28 05:13:09;;;;;;;18.45;6.93;;;17.40;99.90;;;;;;5055201;28;20025;-69
2022/08/28 05:15:47;;;;;;;15.48;7.25;;;17.40;99.90;;;;;;5055071;28;20059;-69
2022/08/28 05:18:14;;;;;;;15.18;6.50;;;17.40;99.90;;;;;;5054970;28;20025;-69
2022/08/28 05:20:43;;;;;;;12.38;6.63;;;17.40;99.90;;;;;;5036034;28;20034;-69
2022/08/28 05:23:09;;;;;;;13.32;6.78;;;17.30;99.90;;;;;;5033536;28;20453;-69
2022/08/28 05:25:38;;;;;;;16.23;7.10;;;17.30;99.90;;;;;;5034042;28;20032;-70
2022/08/28 05:28:04;;;;;;;14.15;6.38;;;17.30;99.90;;;;;;5034862;28;20386;-69
2022/08/28 05:30:31;;;;;;;13.85;7.30;;;17.30;99.90;;;;;;5042233;28;20041;-69
2022/08/28 05:32:58;;;;;;;9.98;6.63;;;17.30;99.90;;;;;;5054672;28;20045;-69
2022/08/28 05:35:25;;;;;;;15.80;6.70;;;17.20;99.90;;;;;;5054880;28;20025;-69
2022/08/28 05:37:54;;;;;;;13.90;6.38;;;17.20;99.90;;;;;;5054687;28;20036;-69
2022/08/28 05:40:23;;;;;;;14.20;6.47;;;17.20;99.90;;;;;;5054096;28;20078;-70
2022/08/28 05:42:50;;;;;;;16.42;7.38;;;17.20;99.90;;;;;;5056963;28;20066;-69
2022/08/28 05:45:16;;;;;;;13.50;6.88;;;17.20;99.90;;;;;;5052483;28;20147;-69
2022/08/28 05:47:42;;;;;;;14.40;6.63;;;17.20;99.90;;;;;;5054155;28;20025;-69
2022/08/28 05:50:12;;;;;;;14.68;5.50;;;17.20;99.90;;;;;;5040273;28;20037;-69
2022/08/28 05:52:39;;;;;;;14.25;6.05;;;17.10;99.90;;;;;;5034339;28;20029;-71
2022/08/28 05:55:06;;;;;;;13.15;6.40;;;17.20;99.90;;;;;;5038323;28;20040;-70
2022/08/28 05:57:32;;;;;;;13.82;6.40;;;17.10;99.90;;;;;;5054329;28;20067;-69
2022/08/28 05:59:58;;;;;;;16.83;6.50;;;17.20;99.90;;;;;;5053934;28;20513;-70
2022/08/28 06:02:23;;;;;;;13.13;6.10;;;17.20;99.90;;;;;;5038692;28;20022;-71
2022/08/28 06:04:50;;;;;;;9.18;5.13;;;17.20;99.90;;;;;;5049012;28;20036;-72
2022/08/28 06:07:15;;;;;;;12.25;5.75;;;17.20;99.90;;;;;;5052717;28;20082;-72
2022/08/28 06:09:42;;;;;;;17.08;5.95;;;17.20;99.90;;;;;;5052867;28;20508;-70
2022/08/28 06:12:08;;;;;;;19.45;6.70;;;17.20;99.90;;;;;;5054078;28;20071;-73
2022/08/28 06:14:33;;;;;;;16.33;7.03;;;17.20;99.90;;;;;;5054336;28;20041;-70
2022/08/28 06:17:00;;;;;;;9.48;5.60;;;17.20;99.90;;;;;;5036154;28;20453;-71
2022/08/28 06:19:29;;;;;;;12.43;5.93;;;17.10;99.90;;;;;;5052994;28;20013;-71
2022/08/28 06:21:57;;;;;;;11.38;5.75;;;17.10;99.90;;;;;;5053727;28;20389;-71
2022/08/28 06:24:24;;;;;;;12.50;6.15;;;17.20;99.90;;;;;;5053999;28;20027;-69
2022/08/28 06:26:51;;;;;;;13.98;6.90;;;17.20;99.90;;;;;;5053926;28;20066;-70
2022/08/28 06:29:18;;;;;;;13.88;5.90;;;17.20;99.90;;;;;;5053671;28;20462;-71
2022/08/28 06:31:45;;;;;;;15.60;6.13;;;17.20;99.90;;;;;;5058765;28;20040;-69
2022/08/28 06:34:11;;;;;;;13.55;6.82;;;17.20;99.90;;;;;;5044980;28;20032;-70
2022/08/28 06:36:41;;;;;;;16.85;6.72;;;17.20;99.90;;;;;;5064074;28;20392;-72
2022/08/28 06:39:08;;;;;;;14.27;5.60;;;17.30;99.90;;;;;;5057521;28;20504;-70
2022/08/28 06:41:39;;;;;;;14.48;6.00;;;17.30;99.90;;;;;;5035589;28;20025;-71
2022/08/28 06:44:06;;;;;;;14.55;6.65;;;17.40;99.90;;;;;;5035942;28;20025;-71
2022/08/28 06:46:33;;;;;;;18.30;5.80;;;17.40;99.90;;;;;;5053690;28;20025;-70
2022/08/28 06:49:01;;;;;;;12.07;5.53;;;17.40;99.90;;;;;;5052227;28;20025;-69
2022/08/28 06:51:28;;;;;;;17.30;5.38;;;17.30;99.90;;;;;;5052619;28;20036;-71
2022/08/28 06:53:54;;;;;;;14.63;5.75;;;17.30;99.90;;;;;;5052257;28;20053;-69
2022/08/28 06:56:20;;;;;;;13.77;5.95;;;17.30;99.90;;;;;;5051491;28;20102;-71
2022/08/28 06:58:48;;;;;;;13.57;6.32;;;17.30;99.90;;;;;;5053299;28;20024;-70
2022/08/28 07:01:35;;;;;;;15.27;6.35;;;17.30;99.90;;;;;;5053175;28;20043;-70
2022/08/28 07:04:07;;;;;;;12.20;5.93;;;17.40;99.90;;;;;;5056214;28;20024;-69
2022/08/28 07:06:36;;;;;;;14.48;5.07;;;17.50;99.90;;;;;;5053626;28;20477;-70
2022/08/28 07:09:04;;;;;;;15.38;5.75;;;17.40;99.90;;;;;;5050564;28;20025;-71
2022/08/28 07:11:32;;;;;;;12.52;5.35;;;17.50;99.90;;;;;;5040912;28;20036;-71
2022/08/28 07:13:59;;;;;;;10.82;5.18;;;17.50;99.90;;;;;;5052765;28;20112;-72
2022/08/28 07:16:28;;;;;;;14.70;5.60;;;17.60;99.90;;;;;;5053154;28;20100;-69
2022/08/28 07:18:54;;;;;;;12.70;4.93;;;17.50;99.90;;;;;;5052469;28;20021;-69
2022/08/28 07:21:20;;;;;;;12.30;5.63;;;17.60;99.90;;;;;;5051875;28;20028;-70
2022/08/28 07:23:46;;;;;;;10.90;5.22;;;17.60;99.90;;;;;;5032707;28;20029;-72
2022/08/28 07:26:18;;;;;;;9.77;4.68;;;17.70;99.90;;;;;;5046335;28;20029;-69
2022/08/28 07:28:44;;;;;;;9.20;4.38;;;17.70;99.90;;;;;;5051585;28;20013;-70
2022/08/28 07:31:15;;;;;;;11.82;4.65;;;17.80;99.90;;;;;;5050695;28;20104;-72
2022/08/28 07:33:43;;;;;;;11.95;4.28;;;17.80;99.90;;;;;;5052477;28;20024;-68
2022/08/28 07:36:15;;;;;;;9.27;4.68;;;17.90;99.90;;;;;;5059281;28;20131;-69
2022/08/28 07:38:41;;;;;;;10.30;3.75;;;17.80;99.90;;;;;;5057961;28;20110;-69
2022/08/28 07:41:15;;;;;;;17.67;4.70;;;17.90;99.90;;;;;;5062158;28;20465;-69
2022/08/28 07:46:25;;;;;;;12.13;4.22;;;18.20;99.90;;;;;;5059697;28;20055;-70
2022/08/28 07:48:52;;;;;;;8.52;3.65;;;18.20;99.90;;;;;;5062288;28;20465;-69
2022/08/28 07:51:18;;;;;;;13.63;4.38;;;18.30;99.90;;;;;;5060929;28;20090;-69
2022/08/28 07:53:44;;;;;;;14.10;4.05;;;18.40;99.90;;;;;;5062362;28;20510;-69
2022/08/28 07:56:10;;;;;;;9.43;3.42;;;18.50;99.90;;;;;;5057506;28;20059;-69
2022/08/28 07:58:37;;;;;;;10.80;3.05;;;18.50;99.90;;;;;;5064059;28;20431;-69
2022/08/28 08:01:04;;;;;;;10.23;3.20;;;18.50;99.90;;;;;;5072433;28;20052;-69
2022/08/28 08:03:30;;;;;;;13.50;3.40;;;18.60;99.90;;;;;;5072165;28;20052;-70
2022/08/28 08:06:00;;;;;;;9.18;3.05;;;18.80;99.90;;;;;;5072589;28;20465;-68
2022/08/28 08:08:27;;;;;;;10.07;3.25;;;19.00;99.90;;;;;;5063192;28;20025;-69
2022/08/28 08:11:17;;;;;;;11.50;2.63;;;19.20;99.90;;;;;;5038343;28;20091;-68
2022/08/28 08:13:44;;;;;;;11.73;3.10;;;19.30;99.90;;;;;;5037996;28;20072;-70
2022/08/28 08:16:16;;;;;;;8.52;3.10;;;19.40;99.90;;;;;;5034117;28;20068;-69
2022/08/28 08:18:42;;;;;;;8.13;3.25;;;19.60;99.90;;;;;;5041652;28;20029;-70
2022/08/28 08:21:11;;;;;;;12.73;4.05;;;19.60;99.90;;;;;;5054848;28;20057;-69
2022/08/28 08:23:38;;;;;;;8.02;2.90;;;19.70;99.90;;;;;;5050557;28;20057;-70
2022/08/28 08:26:06;;;;;;;8.70;3.03;;;19.70;99.90;;;;;;5037920;28;20025;-69
2022/08/28 08:28:34;;;;;;;11.05;2.92;;;19.70;99.90;;;;;;5055903;28;20025;-69
2022/08/28 08:31:14;;;;;;;9.77;2.92;;;19.60;99.90;;;;;;5055342;28;20037;-69
2022/08/28 08:33:46;;;;;;;14.98;3.47;;;19.50;99.90;;;;;;5063291;28;20025;-69
2022/08/28 08:36:14;;;;;;;10.35;2.78;;;19.50;99.90;;;;;;5047482;28;20112;-69
2022/08/28 08:38:41;;;;;;;11.77;3.42;;;19.40;99.90;;;;;;5075853;28;20024;-69
2022/08/28 08:41:18;;;;;;;10.13;3.20;;;19.50;99.90;;;;;;5075702;28;20109;-69
2022/08/28 08:43:55;;;;;;;8.90;2.70;;;19.70;99.90;;;;;;5063908;28;20033;-68
2022/08/28 08:46:30;;;;;;;7.80;2.13;;;19.80;99.90;;;;;;5066126;28;20028;-68
2022/08/28 08:49:01;;;;;;;7.20;2.40;;;19.90;99.90;;;;;;5059302;28;20017;-68
2022/08/28 08:51:46;;;;;;;10.00;2.90;;;20.00;99.90;;;;;;5069176;28;20043;-70
2022/08/28 08:54:16;;;;;;;8.50;2.97;;;20.00;99.90;;;;;;5055643;28;20036;-70
2022/08/28 08:56:43;;;;;;;6.05;2.40;;;20.20;99.90;;;;;;5054968;28;20025;-69
2022/08/28 08:59:19;;;;;;;7.78;2.25;;;20.40;99.90;;;;;;5055379;28;20473;-69
2022/08/28 09:01:57;;;;;;;9.38;2.45;;;20.50;99.90;;;;;;5042836;28;20089;-69
2022/08/28 09:04:40;;;;;;;10.07;2.90;;;20.60;99.90;;;;;;5042616;28;20091;-68
2022/08/28 09:07:06;;;;;;;6.80;2.05;;;20.60;99.90;;;;;;5022031;28;20021;-69
2022/08/28 09:09:39;;;;;;;7.65;2.28;;;20.80;99.90;;;;;;5055707;28;20036;-69
2022/08/28 09:12:26;;;;;;;8.27;2.40;;;20.80;99.90;;;;;;5059089;28;20044;-69
2022/08/28 09:15:03;;;;;;;7.47;2.90;;;20.80;99.90;;;;;;5055473;28;20024;-69
2022/08/28 09:17:45;;;;;;;9.43;2.45;;;20.70;99.90;;;;;;5061477;28;20040;-69
2022/08/28 09:20:14;;;;;;;4.47;2.13;;;20.70;99.90;;;;;;5061664;28;20029;-69
2022/08/28 09:22:46;;;;;;;6.03;2.42;;;20.70;99.90;;;;;;5061783;28;20021;-70
2022/08/28 09:25:44;;;;;;;7.78;2.65;;;20.80;99.90;;;;;;5057372;28;20465;-70
2022/08/28 09:28:15;;;;;;;7.15;2.78;;;21.00;99.90;;;;;;5047128;28;20029;-68
2022/08/28 09:30:42;;;;;;;10.93;3.30;;;21.30;99.90;;;;;;5051203;28;20036;-68
2022/08/28 09:33:08;;;;;;;7.75;2.72;;;21.40;99.90;;;;;;5051372;28;20021;-69
2022/08/28 09:35:36;;;;;;;8.00;2.42;;;21.40;99.90;;;;;;5045159;28;20106;-68
2022/08/28 09:38:20;;;;;;;11.10;3.13;;;21.30;99.90;;;;;;5049534;28;20025;-69
2022/08/28 09:43:34;;;;;;;7.15;2.33;;;21.20;99.90;;;;;;5023175;28;20047;-68
2022/08/28 09:46:08;;;;;;;4.32;2.05;;;21.20;99.90;;;;;;5049988;28;20021;-69
2022/08/28 09:48:39;;;;;;;11.30;2.40;;;21.30;99.90;;;;;;5053734;28;20091;-68
2022/08/28 09:51:25;;;;;;;5.60;1.67;;;21.30;99.90;;;;;;5053345;28;20064;-68
2022/08/28 09:53:51;;;;;;;6.10;2.20;;;21.30;99.90;;;;;;5025110;28;20499;-68
2022/08/28 09:56:23;;;;;;;5.47;2.10;;;21.50;99.90;;;;;;5054389;28;20067;-69
2022/08/28 09:58:53;;;;;;;4.90;1.92;;;21.70;99.90;;;;;;5052984;28;20496;-69
2022/08/28 10:01:28;;;;;;;6.35;2.17;;;22.00;99.90;;;;;;5049342;28;20029;-68
2022/08/28 10:04:28;;;;;;;6.93;1.73;;;22.30;99.90;;;;;;5044989;28;20026;-68
2022/08/28 10:07:15;;;;;;;5.78;2.03;;;22.50;99.90;;;;;;4990233;28;20040;-67
2022/08/28 10:09:59;;;;;;;9.30;2.17;;;22.60;99.90;;;;;;5051383;28;20025;-69
2022/08/28 10:12:24;;;;;;;7.82;2.83;;;22.60;99.90;;;;;;5053357;28;20047;-68
2022/08/28 10:15:25;;;;;;;5.32;1.90;;;22.40;99.90;;;;;;5035412;28;20029;-68
2022/08/28 10:18:22;;;;;;;3.97;1.70;;;22.40;99.90;;;;;;4971606;28;20084;-68
2022/08/28 10:21:07;;;;;;;10.00;2.05;;;22.20;99.90;;;;;;5055607;28;20031;-68
2022/08/28 10:23:39;;;;;;;4.95;1.90;;;22.40;99.90;;;;;;5044269;28;20374;-68
2022/08/28 10:26:24;;;;;;;5.03;2.27;;;22.50;99.90;;;;;;5053083;28;20029;-68
2022/08/28 10:28:55;;;;;;;4.80;1.98;;;22.60;99.90;;;;;;5052709;28;20371;-69
2022/08/28 10:31:50;;;;;;;6.35;2.40;;;22.70;99.90;;;;;;5030879;28;20033;-69
2022/08/28 10:34:21;;;;;;;5.00;1.92;;;22.80;99.90;;;;;;5043565;28;20017;-69
2022/08/28 10:37:03;;;;;;;7.65;2.40;;;23.00;99.90;;;;;;5032960;28;20029;-70
2022/08/28 10:39:31;;;;;;;5.57;1.60;;;23.20;99.90;;;;;;5033665;28;20029;-70
2022/08/28 10:42:02;;;;;;;8.35;1.90;;;23.20;99.90;;;;;;5046188;28;20091;-69
2022/08/28 10:44:54;;;;;;;8.88;2.10;;;23.10;99.90;;;;;;5045701;28;20029;-69
2022/08/28 10:47:22;;;;;;;4.75;1.90;;;23.50;99.90;;;;;;5024130;28;20106;-71
2022/08/28 10:49:52;;;;;;;8.15;2.10;;;23.80;99.90;;;;;;5041178;28;20469;-69
2022/08/28 10:52:31;;;;;;;3.80;1.60;;;24.00;99.70;;;;;;5041965;28;20087;-70
2022/08/28 10:55:11;;;;;;;3.20;1.55;;;24.10;99.90;;;;;;5039616;28;20032;-70
2022/08/28 10:57:47;;;;;;;5.00;1.50;;;24.20;99.40;;;;;;5026803;28;20021;-69
2022/08/28 11:00:15;;;;;;;7.20;1.90;;;24.30;98.90;;;;;;5043522;28;20488;-69
2022/08/28 11:02:44;;;;;;;3.70;1.80;;;24.40;99.00;;;;;;5041008;28;20132;-69
2022/08/28 11:05:10;;;;;;;4.53;1.98;;;24.40;99.30;;;;;;5047774;28;20060;-71
2022/08/28 11:08:11;;;;;;;2.65;1.55;;;24.60;99.90;;;;;;5048191;28;20059;-68
2022/08/28 11:10:37;;;;;;;5.28;1.55;;;24.80;99.20;;;;;;4999990;28;20119;-70
2022/08/28 11:13:08;;;;;;;3.13;1.92;;;24.50;98.30;;;;;;5045844;28;20154;-70
2022/08/28 11:15:35;;;;;;;4.88;2.33;;;24.70;99.40;;;;;;5041173;28;20035;-70
2022/08/28 11:18:03;;;;;;;5.70;1.70;;;24.80;98.40;;;;;;5041889;28;20021;-69
2022/08/28 11:20:30;;;;;;;3.08;1.60;;;24.70;99.30;;;;;;5044257;28;20496;-69
2022/08/28 11:23:06;;;;;;;5.07;1.65;;;24.60;98.60;;;;;;5039568;28;20021;-71
2022/08/28 11:25:56;;;;;;;3.92;1.65;;;24.80;97.80;;;;;;5042537;28;20167;-70
2022/08/28 11:28:24;;;;;;;2.70;1.70;;;24.90;96.10;;;;;;5040758;28;20029;-70
2022/08/28 11:31:02;;;;;;;5.07;1.70;;;25.10;96.90;;;;;;5046707;28;20170;-69
2022/08/28 11:33:49;;;;;;;5.28;1.80;;;24.90;96.70;;;;;;5044827;28;20025;-69
2022/08/28 11:36:18;;;;;;;10.88;2.42;;;25.10;97.60;;;;;;5044101;28;20028;-70
2022/08/28 11:38:43;;;;;;;4.20;1.45;;;25.20;97.20;;;;;;5042704;28;20079;-68
2022/08/28 11:41:13;;;;;;;5.05;1.65;;;25.40;98.10;;;;;;5043687;28;20033;-69
2022/08/28 11:43:43;;;;;;;3.80;1.70;;;25.50;96.70;;;;;;5046468;28;20481;-70
2022/08/28 11:46:23;;;;;;;8.02;2.10;;;25.50;95.60;;;;;;5030798;28;20077;-70
2022/08/28 11:48:54;;;;;;;4.55;1.80;;;25.00;96.40;;;;;;5043273;28;20029;-70
2022/08/28 11:51:47;;;;;;;3.60;1.30;;;25.20;96.50;;;;;;5044383;28;20044;-71
2022/08/28 11:54:16;;;;;;;6.47;1.50;;;25.10;96.20;;;;;;5042506;28;20525;-70
2022/08/28 11:56:44;;;;;;;5.15;1.55;;;25.00;96.70;;;;;;5046119;28;20098;-70
2022/08/28 11:59:44;;;;;;;3.10;1.52;;;25.20;96.10;;;;;;5045383;28;20393;-70
2022/08/28 12:02:42;;;;;;;6.70;1.40;;;25.30;96.60;;;;;;5049854;28;20048;-69
2022/08/28 12:05:14;;;;;;;4.25;1.58;;;25.40;95.10;;;;;;5043378;28;20033;-69
2022/08/28 12:07:48;;;;;;;3.88;1.20;;;25.50;95.70;;;;;;5046176;28;20036;-70
2022/08/28 12:10:24;;;;;;;3.85;1.40;;;25.40;94.40;;;;;;5040772;28;20622;-70
2022/08/28 12:12:52;;;;;;;6.00;1.90;;;25.50;94.60;;;;;;5039256;28;20378;-69
2022/08/28 12:15:26;;;;;;;5.05;1.48;;;25.80;95.40;;;;;;5040114;28;20017;-70
2022/08/28 12:17:56;;;;;;;5.18;1.70;;;25.70;95.30;;;;;;5039788;28;20074;-69
2022/08/28 12:20:46;;;;;;;6.28;1.65;;;25.50;97.10;;;;;;5024393;28;20037;-70
2022/08/28 12:23:44;;;;;;;7.80;1.55;;;25.50;95.50;;;;;;5048417;28;20078;-69
2022/08/28 12:26:21;;;;;;;4.75;1.42;;;25.60;95.00;;;;;;5040198;28;20025;-69
2022/08/28 12:29:20;;;;;;;8.45;1.80;;;25.70;94.80;;;;;;5042660;28;20264;-70
2022/08/28 12:32:11;;;;;;;4.85;1.70;;;25.60;94.80;;;;;;5022764;28;20033;-70
2022/08/28 12:35:13;;;;;;;5.82;1.40;;;25.80;94.30;;;;;;5041270;28;20032;-69
2022/08/28 12:37:53;;;;;;;3.92;1.35;;;25.60;94.90;;;;;;5043782;28;20025;-70
2022/08/28 12:40:28;;;;;;;3.30;1.38;;;25.50;95.70;;;;;;5042399;28;20112;-71
2022/08/28 12:43:04;;;;;;;2.88;1.40;;;25.50;95.90;;;;;;5042076;28;20030;-69
2022/08/28 12:45:38;;;;;;;4.15;1.17;;;25.60;94.60;;;;;;5022674;28;20124;-70
2022/08/28 12:48:30;;;;;;;3.10;1.55;;;25.80;93.50;;;;;;5045387;28;20465;-72
2022/08/28 12:51:05;;;;;;;3.78;1.50;;;25.90;93.90;;;;;;5037411;28;20146;-70
2022/08/28 12:53:37;;;;;;;7.28;1.85;;;26.10;95.00;;;;;;5042517;28;20103;-69
2022/08/28 12:56:03;;;;;;;5.07;1.40;;;25.90;93.50;;;;;;5046653;28;20052;-68
2022/08/28 12:58:28;;;;;;;4.88;1.67;;;25.70;94.30;;;;;;5032560;28;20060;-69
2022/08/28 13:00:58;;;;;;;5.03;1.58;;;25.60;93.40;;;;;;5045313;28;20469;-69
2022/08/28 13:03:24;;;;;;;4.50;1.50;;;25.50;95.00;;;;;;5045286;28;20025;-69
2022/08/28 13:06:06;;;;;;;5.43;1.60;;;25.40;94.70;;;;;;5041062;28;20507;-68
2022/08/28 13:08:33;;;;;;;3.27;1.70;;;25.50;93.70;;;;;;5047968;28;20021;-69
2022/08/28 13:10:59;;;;;;;3.85;1.20;;;25.70;94.30;;;;;;5045100;28;20099;-69